createdAt,value
2018-09-28T03:39:07.064Z,98781.31
2018-09-28T03:41:36.704Z,98784.58
2018-09-28T03:44:06.714Z,98783.95
2018-09-28T03:46:36.600Z,98780.00
2018-09-28T03:49:07.271Z,98785.09
2018-09-28T03:51:36.966Z,98787.07
2018-09-28T03:54:06.362Z,98786.73
2018-09-28T03:56:35.825Z,98778.69
2018-09-28T03:59:05.480Z,98787.55
2018-09-28T04:01:35.191Z,98788.36
2018-09-28T04:04:04.623Z,98796.42
2018-09-28T04:06:34.197Z,98794.11
2018-09-28T04:09:03.751Z,98802.99
2018-09-28T04:11:33.224Z,98804.94
2018-09-28T04:14:02.680Z,98803.45
2018-09-28T04:16:32.221Z,98804.61
2018-09-28T04:19:01.779Z,98802.14
2018-09-28T04:21:31.328Z,98813.65
2018-09-28T04:24:01.041Z,98820.73
2018-09-28T04:26:32.007Z,98821.03
2018-09-28T04:29:01.497Z,98824.91
2018-09-28T04:31:31.229Z,98828.36
2018-09-28T04:34:00.807Z,98830.83
2018-09-28T04:36:30.360Z,98832.50
2018-09-28T04:38:59.772Z,98828.06
2018-09-28T04:41:29.481Z,98823.31
2018-09-28T04:43:59.954Z,98822.13
2018-09-28T04:46:29.573Z,98821.80
2018-09-28T04:48:59.071Z,98828.38
2018-09-28T04:51:30.808Z,98836.05
2018-09-28T04:54:00.485Z,98838.28
2018-09-28T04:56:30.530Z,98840.81
2018-09-28T04:59:00.456Z,98839.38
2018-09-28T05:01:29.956Z,98840.20
2018-09-28T05:03:59.760Z,98846.72
2018-09-28T05:06:30.389Z,98851.61
2018-09-28T05:08:59.941Z,98849.27
2018-09-28T05:11:29.445Z,98859.94
2018-09-28T05:13:59.114Z,98845.34
2018-09-28T05:16:28.631Z,98848.55
2018-09-28T05:18:58.129Z,98845.27
2018-09-28T05:21:27.694Z,98849.20
2018-09-28T05:23:57.331Z,98853.00
2018-09-28T05:26:27.140Z,98855.45
2018-09-28T05:28:57.232Z,98852.82
2018-09-28T05:31:26.994Z,98852.28
2018-09-28T05:33:56.561Z,98855.42
2018-09-28T05:36:26.053Z,98848.47
2018-09-28T05:38:56.529Z,98858.63
2018-09-28T05:41:26.315Z,98865.88
2018-09-28T05:43:56.946Z,98864.23
2018-09-28T05:46:26.517Z,98862.78
2018-09-28T05:48:56.016Z,98856.84
2018-09-28T05:51:25.794Z,98854.70
2018-09-28T05:53:55.635Z,98854.64
2018-09-28T05:56:25.699Z,98854.39
2018-09-28T05:59:00.563Z,98853.06
2018-09-28T06:01:35.459Z,98860.42
2018-09-28T06:04:10.286Z,98868.06
2018-09-28T06:06:39.860Z,98868.38
2018-09-28T06:09:10.726Z,98881.34
2018-09-28T06:11:40.450Z,98880.02
2018-09-28T06:14:10.562Z,98886.13
2018-09-28T06:16:40.080Z,98883.52
2018-09-28T06:19:09.648Z,98882.50
2018-09-28T06:21:39.192Z,98877.56
2018-09-28T06:24:08.725Z,98877.62
2018-09-28T06:26:38.289Z,98882.26
2018-09-28T06:29:07.889Z,98892.45
2018-09-28T06:31:37.353Z,98895.75
2018-09-28T06:34:06.850Z,98897.08
2018-09-28T06:36:36.708Z,98903.37
2018-09-28T06:39:07.289Z,98894.14
2018-09-28T06:41:37.061Z,98894.64
2018-09-28T06:44:06.560Z,98900.34
2018-09-28T06:46:36.009Z,98912.78
2018-09-28T06:49:05.530Z,98910.14
2018-09-28T06:51:35.170Z,98908.84
2018-09-28T06:54:04.823Z,98923.46
2018-09-28T06:56:34.586Z,98922.91
2018-09-28T06:59:04.193Z,98926.75
2018-09-28T07:01:33.799Z,98929.59
2018-09-28T07:04:03.512Z,98928.71
2018-09-28T07:06:32.972Z,98930.73
2018-09-28T07:09:02.720Z,98933.69
2018-09-28T07:11:32.326Z,98931.65
2018-09-28T07:14:02.138Z,98947.70
2018-09-28T07:16:32.006Z,98944.91
2018-09-28T07:19:01.658Z,98943.55
2018-09-28T07:21:31.367Z,98948.64
2018-09-28T07:24:01.055Z,98949.22
2018-09-28T07:26:30.889Z,98959.89
2018-09-28T07:29:00.702Z,98964.45
2018-09-28T07:31:30.213Z,98962.17
2018-09-28T07:34:00.050Z,98961.77
2018-09-28T07:36:29.757Z,98961.41
2018-09-28T07:38:59.117Z,98964.88
2018-09-28T07:41:29.454Z,98969.98
2018-09-28T07:43:59.056Z,98979.15
2018-09-28T07:46:28.545Z,98977.08
2018-09-28T07:48:58.064Z,98992.01
2018-09-28T07:51:27.548Z,98988.31
2018-09-28T07:53:57.112Z,98995.04
2018-09-28T07:56:26.571Z,98992.95
2018-09-28T07:58:56.112Z,98999.72
2018-09-28T08:01:25.790Z,99000.39
2018-09-28T08:03:55.632Z,99004.39
2018-09-28T08:06:25.272Z,99009.27
2018-09-28T08:08:55.130Z,99005.89
2018-09-28T08:11:24.743Z,99006.03
2018-09-28T08:13:54.666Z,99011.29
2018-09-28T08:16:24.365Z,99015.00
2018-09-28T08:18:53.983Z,99009.73
2018-09-28T08:21:23.576Z,99012.41
2018-09-28T08:23:53.095Z,99014.23
2018-09-28T08:26:22.879Z,99015.95
2018-09-28T08:28:52.691Z,99022.91
2018-09-28T08:31:22.401Z,99025.78
2018-09-28T08:33:52.109Z,99028.55
2018-09-28T08:36:21.872Z,99021.19
2018-09-28T08:38:51.733Z,99023.56
2018-09-28T08:41:21.351Z,99026.64
2018-09-28T08:43:51.150Z,99022.63
2018-09-28T08:46:21.095Z,99024.34
2018-09-28T08:48:51.604Z,99032.23
2018-09-28T08:51:21.362Z,99036.00
2018-09-28T08:53:51.318Z,99034.19
2018-09-28T08:56:20.865Z,99035.95
2018-09-28T08:58:50.633Z,99044.02
2018-09-28T09:01:20.185Z,99046.29
2018-09-28T09:03:49.790Z,99056.34
2018-09-28T09:06:19.283Z,99059.55
2018-09-28T09:08:48.877Z,99061.91
2018-09-28T09:11:18.570Z,99057.55
2018-09-28T09:13:48.092Z,99057.59
2018-09-28T09:16:17.780Z,99060.64
2018-09-28T09:18:47.341Z,99063.23
2018-09-28T09:21:16.874Z,99062.31
2018-09-28T09:23:46.651Z,99059.15
2018-09-28T09:26:16.131Z,99064.97
2018-09-28T09:28:45.913Z,99064.21
2018-09-28T09:31:15.526Z,99066.24
2018-09-28T09:33:46.155Z,99067.38
2018-09-28T09:36:15.972Z,99065.74
2018-09-28T09:38:45.674Z,99068.86
2018-09-28T09:41:16.296Z,99077.70
2018-09-28T09:43:45.829Z,99075.73
2018-09-28T09:46:15.368Z,99079.45
2018-09-28T09:48:44.869Z,99079.92
2018-09-28T09:51:14.356Z,99079.83
2018-09-28T09:53:43.880Z,99079.12
2018-09-28T09:56:13.637Z,99076.38
2018-09-28T09:58:43.343Z,99083.61
2018-09-28T10:01:18.016Z,99079.91
2018-09-28T10:03:49.932Z,99075.39
2018-09-28T10:06:19.499Z,99080.89
2018-09-28T10:08:49.254Z,99085.90
2018-09-28T10:11:18.855Z,99091.07
2018-09-28T10:13:48.389Z,99089.91
2018-09-28T10:16:17.996Z,99093.59
2018-09-28T10:18:47.553Z,99090.92
2018-09-28T10:21:17.200Z,99089.94
2018-09-28T10:23:46.980Z,99090.30
2018-09-28T10:26:16.799Z,99097.09
2018-09-28T10:28:46.405Z,99096.59
2018-09-28T10:31:16.265Z,99101.48
2018-09-28T10:33:45.961Z,99103.39
2018-09-28T10:36:15.580Z,99101.56
2018-09-28T10:38:45.351Z,99097.97
2018-09-28T10:41:14.895Z,99098.35
2018-09-28T10:43:44.420Z,99102.02
2018-09-28T10:46:14.010Z,99104.53
2018-09-28T10:48:43.596Z,99107.51
2018-09-28T10:51:13.104Z,99100.58
2018-09-28T10:53:42.678Z,99107.22
2018-09-28T10:56:12.358Z,99114.59
2018-09-28T10:58:42.139Z,99107.77
2018-09-28T11:01:11.724Z,99110.47
2018-09-28T11:03:41.228Z,99112.78
2018-09-28T11:06:11.010Z,99116.72
2018-09-28T11:08:40.534Z,99115.20
2018-09-28T11:11:10.272Z,99109.19
2018-09-28T11:13:39.734Z,99097.47
2018-09-28T11:16:09.584Z,99097.20
2018-09-28T11:18:39.133Z,99094.97
2018-09-28T11:21:09.014Z,99102.37
2018-09-28T11:23:38.659Z,99112.60
2018-09-28T11:26:08.334Z,99120.06
2018-09-28T11:28:38.294Z,99122.16
2018-09-28T11:31:08.108Z,99118.61
2018-09-28T11:33:37.732Z,99113.59
2018-09-28T11:36:07.421Z,99111.36
2018-09-28T11:38:36.896Z,99115.70
2018-09-28T11:41:06.698Z,99114.43
2018-09-28T11:43:36.309Z,99117.10
2018-09-28T11:46:05.869Z,99114.63
2018-09-28T11:48:35.477Z,99110.27
2018-09-28T11:51:05.067Z,99112.16
2018-09-28T11:53:34.878Z,99113.80
2018-09-28T11:56:04.790Z,99109.66
2018-09-28T11:58:34.494Z,99115.39
2018-09-28T12:01:04.212Z,99108.33
2018-09-28T12:03:33.769Z,99105.09
2018-09-28T12:06:03.302Z,99103.13
2018-09-28T12:08:33.342Z,99101.11
2018-09-28T12:11:03.191Z,99102.22
2018-09-28T12:13:32.836Z,99096.17
2018-09-28T12:16:02.462Z,99092.34
2018-09-28T12:18:32.184Z,99088.05
2018-09-28T12:21:02.083Z,99088.17
2018-09-28T12:23:31.635Z,99086.53
2018-09-28T12:26:01.404Z,99088.72
2018-09-28T12:28:31.177Z,99088.75
2018-09-28T12:31:00.818Z,99095.21
2018-09-28T12:33:30.536Z,99097.92
2018-09-28T12:36:00.242Z,99094.77
2018-09-28T12:38:29.821Z,99089.64
2018-09-28T12:40:59.554Z,99090.76
2018-09-28T12:43:35.030Z,99087.28
2018-09-28T12:45:59.173Z,99077.94
2018-09-28T12:48:28.914Z,99086.31
2018-09-28T12:50:58.590Z,99088.23
2018-09-28T12:53:28.126Z,99083.80
2018-09-28T12:55:58.024Z,99088.45
2018-09-28T12:58:27.468Z,99091.14
2018-09-28T13:00:57.084Z,99089.34
2018-09-28T13:03:26.727Z,99087.53
2018-09-28T13:05:56.408Z,99084.20
2018-09-28T13:08:26.039Z,99082.91
2018-09-28T13:10:55.599Z,99082.77
2018-09-28T13:13:25.116Z,99091.84
2018-09-28T13:15:54.604Z,99091.23
2018-09-28T13:18:24.254Z,99089.33
2018-09-28T13:20:53.975Z,99087.51
2018-09-28T13:23:23.681Z,99091.67
2018-09-28T13:25:53.699Z,99084.78
2018-09-28T13:28:23.410Z,99088.83
2018-09-28T13:30:53.181Z,99093.03
2018-09-28T13:33:22.856Z,99100.47
2018-09-28T13:35:52.509Z,99093.55
2018-09-28T13:38:22.213Z,99090.64
2018-09-28T13:40:51.746Z,99086.90
2018-09-28T13:43:21.368Z,99087.05
2018-09-28T13:45:50.875Z,99088.59
2018-09-28T13:48:21.740Z,99090.97
2018-09-28T13:50:51.639Z,99097.89
2018-09-28T13:53:21.521Z,99096.50
2018-09-28T13:55:51.115Z,99098.19
2018-09-28T13:58:20.751Z,99106.55
2018-09-28T14:00:50.578Z,99076.25
2018-09-28T14:03:20.258Z,99108.98
2018-09-28T14:05:50.376Z,99108.55
2018-09-28T14:08:23.661Z,99107.48
2018-09-28T14:10:53.409Z,99116.87
2018-09-28T14:13:23.195Z,99115.25
2018-09-28T14:15:52.806Z,99116.78
2018-09-28T14:18:22.423Z,99108.33
2018-09-28T14:20:52.273Z,99110.58
2018-09-28T14:23:21.927Z,99114.49
2018-09-28T14:25:51.421Z,99112.36
2018-09-28T14:28:21.030Z,99117.23
2018-09-28T14:30:50.926Z,99117.17
2018-09-28T14:33:20.657Z,99123.54
2018-09-28T14:35:50.188Z,99121.48
2018-09-28T14:38:19.825Z,99129.49
2018-09-28T14:40:50.598Z,99130.92
2018-09-28T14:43:21.341Z,99138.73
2018-09-28T14:45:50.942Z,99140.97
2018-09-28T14:48:20.840Z,99147.74
2018-09-28T14:50:50.628Z,99146.81
2018-09-28T14:53:20.384Z,99149.20
2018-09-28T14:55:50.031Z,99154.70
2018-09-28T14:58:19.771Z,99154.83
2018-09-28T15:00:49.651Z,99157.48
2018-09-28T15:03:19.376Z,99159.70
2018-09-28T15:05:49.332Z,99160.70
2018-09-28T15:08:19.153Z,99155.69
2018-09-28T15:10:48.619Z,99155.46
2018-09-28T15:13:18.560Z,99164.39
2018-09-28T15:15:49.396Z,99167.67
2018-09-28T15:18:19.264Z,99167.90
2018-09-28T15:20:48.917Z,99160.36
2018-09-28T15:23:18.830Z,99169.75
2018-09-28T15:25:49.665Z,99172.57
2018-09-28T15:28:19.405Z,99165.28
2018-09-28T15:30:48.944Z,99167.02
2018-09-28T15:33:18.894Z,99171.24
2018-09-28T15:35:48.604Z,99179.22
2018-09-28T15:38:18.338Z,99177.80
2018-09-28T15:40:47.993Z,99177.37
2018-09-28T15:43:17.797Z,99174.52
2018-09-28T15:45:47.646Z,99178.09
2018-09-28T15:48:17.172Z,99180.22
2018-09-28T15:50:46.716Z,99186.22
2018-09-28T15:53:16.340Z,99181.27
2018-09-28T15:55:45.892Z,99188.06
2018-09-28T15:58:15.392Z,99191.89
2018-09-28T16:00:44.934Z,99195.14
2018-09-28T16:03:14.488Z,99198.05
2018-09-28T16:05:44.073Z,99196.08
2018-09-28T16:08:13.796Z,99212.19
2018-09-28T16:10:43.609Z,99211.20
2018-09-28T16:13:13.324Z,99212.52
2018-09-28T16:15:43.028Z,99214.34
2018-09-28T16:18:12.744Z,99218.10
2018-09-28T16:20:42.658Z,99224.80
2018-09-28T16:23:12.461Z,99224.78
2018-09-28T16:25:42.177Z,99226.72
2018-09-28T16:28:11.933Z,99228.41
2018-09-28T16:30:41.511Z,99228.31
2018-09-28T16:33:11.008Z,99220.91
2018-09-28T16:35:40.805Z,99228.96
2018-09-28T16:38:10.523Z,99230.30
2018-09-28T16:40:40.147Z,99242.34
2018-09-28T16:43:09.878Z,99237.98
2018-09-28T16:45:39.652Z,99237.77
2018-09-28T16:48:09.168Z,99248.63
2018-09-28T16:50:38.773Z,99243.51
2018-09-28T16:53:08.494Z,99246.50
2018-09-28T16:55:38.269Z,99249.64
2018-09-28T16:58:08.081Z,99253.52
2018-09-28T17:00:38.315Z,99252.34
2018-09-28T17:03:08.728Z,99250.72
2018-09-28T17:05:38.613Z,99257.97
2018-09-28T17:08:08.254Z,99260.91
2018-09-28T17:10:39.435Z,99266.55
2018-09-28T17:13:08.987Z,99263.20
2018-09-28T17:15:38.706Z,99271.25
2018-09-28T17:18:08.728Z,99274.32
2018-09-28T17:20:38.199Z,99276.97
2018-09-28T17:23:07.729Z,99276.33
2018-09-28T17:25:37.360Z,99283.61
2018-09-28T17:28:07.363Z,99285.58
2018-09-28T17:30:37.067Z,99277.70
2018-09-28T17:33:06.569Z,99287.38
2018-09-28T17:35:36.278Z,99292.00
2018-09-28T17:38:06.112Z,99297.60
2018-09-28T17:40:36.310Z,99299.56
2018-09-28T17:43:06.552Z,99300.94
2018-09-28T17:45:36.458Z,99296.08
2018-09-28T17:48:06.259Z,99305.27
2018-09-28T17:50:35.965Z,99309.70
2018-09-28T17:53:05.685Z,99316.83
2018-09-28T17:55:35.440Z,99312.92
2018-09-28T17:58:05.266Z,99320.84
2018-09-28T18:00:35.013Z,99318.20
2018-09-28T18:03:04.787Z,99326.14
2018-09-28T18:05:35.136Z,99324.19
2018-09-28T18:08:04.724Z,99320.06
2018-09-28T18:10:34.672Z,99322.37
2018-09-28T18:13:04.383Z,99327.02
2018-09-28T18:15:34.083Z,99334.14
2018-09-28T18:18:03.860Z,99341.07
2018-09-28T18:20:33.721Z,99344.87
2018-09-28T18:23:03.275Z,99346.67
2018-09-28T18:25:32.904Z,99353.93
2018-09-28T18:28:02.727Z,99356.91
2018-09-28T18:30:32.434Z,99361.18
2018-09-28T18:33:02.316Z,99362.82
2018-09-28T18:35:32.343Z,99357.16
2018-09-28T18:38:01.990Z,99356.84
2018-09-28T18:40:31.688Z,99352.53
2018-09-28T18:43:01.440Z,99360.75
2018-09-28T18:45:32.029Z,99363.39
2018-09-28T18:48:01.731Z,99376.23
2018-09-28T18:50:31.697Z,99380.12
2018-09-28T18:53:01.365Z,99378.98
2018-09-28T18:55:30.992Z,99377.47
2018-09-28T18:58:00.670Z,99382.92
2018-09-28T19:00:30.688Z,99375.30
2018-09-28T19:03:00.499Z,99376.59
2018-09-28T19:05:30.233Z,99380.04
2018-09-28T19:07:59.852Z,99376.75
2018-09-28T19:10:29.550Z,99389.25
2018-09-28T19:12:59.360Z,99392.14
2018-09-28T19:15:29.353Z,99391.14
2018-09-28T19:17:59.060Z,99395.12
2018-09-28T19:20:28.870Z,99396.73
2018-09-28T19:22:58.642Z,99394.41
2018-09-28T19:25:28.295Z,99404.11
2018-09-28T19:27:58.008Z,99406.86
2018-09-28T19:30:27.789Z,99413.93
2018-09-28T19:33:02.023Z,99415.05
2018-09-28T19:35:37.954Z,99424.75
2018-09-28T19:38:44.236Z,99434.77
2018-09-28T19:41:14.056Z,99436.84
2018-09-28T19:43:43.772Z,99439.56
2018-09-28T19:46:13.654Z,99450.19
2018-09-28T19:48:43.446Z,99453.70
2018-09-28T19:51:13.111Z,99456.69
2018-09-28T19:53:42.810Z,99450.77
2018-09-28T19:56:13.091Z,99453.41
2018-09-28T19:58:42.748Z,99453.27
2018-09-28T20:01:12.568Z,99448.48
2018-09-28T20:03:42.084Z,99460.16
2018-09-28T20:06:11.631Z,99465.51
2018-09-28T20:08:41.374Z,99466.70
2018-09-28T20:11:12.727Z,99462.91
2018-09-28T20:13:42.861Z,99463.47
2018-09-28T20:16:12.747Z,99464.80
2018-09-28T20:18:42.905Z,99462.04
2018-09-28T20:21:14.498Z,99472.52
2018-09-28T20:23:44.416Z,99470.95
2018-09-28T20:26:14.298Z,99469.30
2018-09-28T20:28:44.284Z,99478.88
2018-09-28T20:31:14.008Z,99479.66
2018-09-28T20:34:07.600Z,99479.91
2018-09-28T20:36:38.067Z,99473.84
2018-09-28T20:39:11.564Z,99485.86
2018-09-28T20:41:42.311Z,99489.60
2018-09-28T20:44:12.125Z,99484.31
2018-09-28T20:46:42.041Z,99489.81
2018-09-28T20:49:11.935Z,99492.55
2018-09-28T20:51:41.612Z,99487.15
2018-09-28T20:54:12.359Z,99494.55
2018-09-28T20:56:41.844Z,99490.73
2018-09-28T20:59:11.511Z,99498.81
2018-09-28T21:01:41.013Z,99497.63
2018-09-28T21:04:10.719Z,99500.09
2018-09-28T21:06:46.018Z,99503.87
2018-09-28T21:09:19.312Z,99507.48
2018-09-28T21:11:52.893Z,99502.44
2018-09-28T21:14:23.056Z,99505.45
2018-09-28T21:16:52.765Z,99505.70
2018-09-28T21:19:22.309Z,99509.39
2018-09-28T21:21:52.083Z,99504.26
2018-09-28T21:24:21.823Z,99501.58
2018-09-28T21:26:51.556Z,99516.30
2018-09-28T21:29:21.310Z,99512.45
2018-09-28T21:31:50.823Z,99519.30
2018-09-28T21:34:20.524Z,99526.48
2018-09-28T21:36:50.194Z,99529.11
2018-09-28T21:39:20.044Z,99528.87
2018-09-28T21:41:49.652Z,99538.80
2018-09-28T21:44:20.189Z,99534.94
2018-09-28T21:46:49.756Z,99541.61
2018-09-28T21:49:19.393Z,99548.95
2018-09-28T21:51:49.001Z,99544.05
2018-09-28T21:54:18.490Z,99550.08
2018-09-28T21:56:48.314Z,99557.16
2018-09-28T21:59:17.966Z,99557.23
2018-09-28T22:01:47.733Z,99548.22
2018-09-28T22:04:17.444Z,99538.30
2018-09-28T22:06:46.995Z,99547.22
2018-09-28T22:09:16.568Z,99550.34
2018-09-28T22:11:46.166Z,99546.56
2018-09-28T22:14:15.930Z,99548.64
2018-09-28T22:16:45.782Z,99547.61
2018-09-28T22:19:15.338Z,99549.66
2018-09-28T22:21:44.990Z,99551.91
2018-09-28T22:24:14.508Z,99546.28
2018-09-28T22:26:44.209Z,99558.72
2018-09-28T22:29:13.756Z,99560.56
2018-09-28T22:31:43.319Z,99565.74
2018-09-28T22:34:13.028Z,99567.97
2018-09-28T22:36:42.741Z,99551.86
2018-09-28T22:39:12.997Z,99553.44
2018-09-28T22:41:42.487Z,99551.58
2018-09-28T22:44:11.988Z,99551.65
2018-09-28T22:46:41.513Z,99550.34
2018-09-28T22:49:11.080Z,99551.76
2018-09-28T22:51:40.786Z,99549.70
2018-09-28T22:54:10.389Z,99550.22
2018-09-28T22:56:40.104Z,99550.58
2018-09-28T22:59:09.816Z,99548.40
2018-09-28T23:01:40.236Z,99560.61
2018-09-28T23:04:10.455Z,99557.86
2018-09-28T23:06:40.170Z,99559.69
2018-09-28T23:09:10.300Z,99562.72
2018-09-28T23:11:39.835Z,99572.33
2018-09-28T23:14:09.360Z,99562.66
2018-09-28T23:16:39.004Z,99564.94
2018-09-28T23:19:08.817Z,99566.05
2018-09-28T23:21:38.495Z,99568.27
2018-09-28T23:24:08.416Z,99564.21
2018-09-28T23:26:38.159Z,99571.05
2018-09-28T23:29:07.872Z,99574.70
2018-09-28T23:31:37.553Z,99574.02
2018-09-28T23:34:07.689Z,99574.20
2018-09-28T23:36:37.211Z,99570.67
2018-09-28T23:39:08.341Z,99574.97
2018-09-28T23:41:38.086Z,99579.20
2018-09-28T23:44:08.191Z,99578.16
2018-09-28T23:46:41.659Z,99578.03
2018-09-28T23:49:11.186Z,99576.34
2018-09-28T23:51:40.627Z,99581.34
2018-09-28T23:54:10.084Z,99579.41
2018-09-28T23:56:39.634Z,99579.78
2018-09-28T23:59:09.192Z,99582.44
